Decoded Metar for GMMB (BEN SLIMANE in MOROCCO) (IATA:N/A) | Meteo·Mobile Aviation Weather
aviador You're here:

GMMB Decoded Metar

BEN SLIMANE in MOROCCO
Report Time2018-09-19 15:00:00
UTC Time2018-09-19 15:10:49
Flight Rules mvfr MVFR
Wind360° at 12 kt
W.Decomp.*RWY 32: 8.9 kt HW 8.0 kt RCW
Visibility6000 m
Phenomena:N/A
Clouds:N/A
Expected CloudBase > 5,600 ft AGL from Temp-Dew spread
CeilingNone
Temp31°C (ISA +17)
Dew Point17°C (43% RH)
Heat Index31.4°C
AAT29.0°C
QNH1018 hPa
Density Alt2,687 ft
Elevation626 ft
Report Wrong Elevation
Raw Report
METAR GMMB 191500Z 36012KT 310V020 6000 NSC 31/17 Q1018 NOSIG=

Extra information for GMMB:More info

Metar Taf Metar & Taf Last 4 Metars F.Rules Stats Wind Profile Meteogram Temp Stats Airport Information Weather charts Add Link Nearby VenuesMetar ALERT Operation Metar Decoded Social comments